Time,TemperatureF,DewpointF,PressureIn,WindDirection,WindDirectionDegrees,WindSpeedMPH,WindSpeedGustMPH,Humidity,HourlyPrecipIn,Conditions,Clouds,dailyrainin,SolarRadiationWatts/m^2,SoftwareType,DateUTC
2013-02-19 00:02:00,44.0,29.0,-100.00,SW,224,3.0,8.0,55,0.00,,,0.00,0.000000,,2013-02-19 05:02:00,
2013-02-19 00:13:00,44.0,29.0,-100.00,SW,224,3.0,8.0,55,0.00,,,0.00,0.000000,,2013-02-19 05:13:00,
2013-02-19 00:22:00,44.0,29.0,-100.00,SW,224,3.0,8.0,55,0.00,,,0.00,0.000000,,2013-02-19 05:22:00,
2013-02-19 00:53:00,44.0,31.0,-100.00,SW,235,3.0,7.0,60,0.00,,,0.00,0.000000,,2013-02-19 05:53:00,
2013-02-19 01:03:00,44.0,31.0,-100.00,SW,235,3.0,7.0,60,0.00,,,0.00,0.000000,,2013-02-19 06:03:00,
2013-02-19 01:12:00,44.0,31.0,-100.00,SW,235,3.0,7.0,60,0.00,,,0.00,0.000000,,2013-02-19 06:12:00,
2013-02-19 01:22:00,44.0,31.0,-100.00,SW,235,3.0,7.0,60,0.00,,,0.00,0.000000,,2013-02-19 06:22:00,
2013-02-19 01:53:00,44.0,31.0,-100.00,WSW,256,2.0,6.0,61,0.00,,,0.00,0.000000,,2013-02-19 06:53:00,
2013-02-19 02:02:00,44.0,31.0,-100.00,WSW,256,2.0,6.0,61,0.00,,,0.00,0.000000,,2013-02-19 07:02:00,
2013-02-19 02:12:00,44.0,31.0,-100.00,WSW,256,2.0,6.0,61,0.00,,,0.00,0.000000,,2013-02-19 07:12:00,
2013-02-19 02:22:00,44.0,31.0,-100.00,WSW,256,2.0,6.0,61,0.00,,,0.00,0.000000,,2013-02-19 07:22:00,
2013-02-19 02:52:00,42.0,31.0,-100.00,WSW,237,2.0,4.0,65,0.00,,,0.00,0.000000,,2013-02-19 07:52:00,
2013-02-19 03:02:00,42.0,31.0,-100.00,WSW,237,2.0,4.0,65,0.00,,,0.00,0.000000,,2013-02-19 08:02:00,
2013-02-19 03:11:00,42.0,31.0,-100.00,WSW,237,2.0,4.0,65,0.00,,,0.00,0.000000,,2013-02-19 08:11:00,
2013-02-19 03:22:00,42.0,31.0,-100.00,WSW,237,2.0,4.0,65,0.00,,,0.00,0.000000,,2013-02-19 08:22:00,
2013-02-19 03:52:00,42.0,32.0,-100.00,SSE,164,1.0,5.0,68,0.00,,,0.00,0.000000,,2013-02-19 08:52:00,
2013-02-19 04:02:00,42.0,32.0,-100.00,SSE,164,1.0,5.0,68,0.00,,,0.00,0.000000,,2013-02-19 09:02:00,
2013-02-19 04:11:00,42.0,32.0,-100.00,SSE,164,1.0,5.0,68,0.00,,,0.00,0.000000,,2013-02-19 09:11:00,
2013-02-19 04:22:00,42.0,32.0,-100.00,SSE,164,1.0,5.0,68,0.00,,,0.00,0.000000,,2013-02-19 09:22:00,
2013-02-19 04:53:00,42.0,33.0,-100.00,SE,137,1.0,3.0,70,0.00,,,0.00,0.000000,,2013-02-19 09:53:00,
2013-02-19 05:02:00,42.0,33.0,-100.00,SE,137,1.0,3.0,70,0.00,,,0.00,0.000000,,2013-02-19 10:02:00,
2013-02-19 05:11:00,42.0,33.0,-100.00,SE,137,1.0,3.0,70,0.00,,,0.00,0.000000,,2013-02-19 10:11:00,
2013-02-19 05:22:00,42.0,33.0,-100.00,SE,137,1.0,3.0,70,0.00,,,0.00,0.000000,,2013-02-19 10:22:00,
2013-02-19 05:52:00,43.0,35.0,-100.00,ENE,58,0.0,3.0,73,0.00,,,0.00,0.000000,,2013-02-19 10:52:00,
2013-02-19 06:01:00,43.0,35.0,-100.00,ENE,58,0.0,3.0,73,0.00,,,0.00,0.000000,,2013-02-19 11:01:00,
2013-02-19 06:11:00,43.0,35.0,-100.00,ENE,58,0.0,3.0,73,0.00,,,0.00,0.000000,,2013-02-19 11:11:00,
2013-02-19 06:22:00,43.0,35.0,-100.00,ENE,58,0.0,3.0,73,0.00,,,0.00,0.000000,,2013-02-19 11:22:00,
2013-02-19 06:52:00,46.0,37.0,-100.00,East,83,2.0,6.0,71,0.00,,,0.00,0.000000,,2013-02-19 11:52:00,
2013-02-19 07:02:00,46.0,37.0,-100.00,East,83,2.0,6.0,71,0.00,,,0.00,0.000000,,2013-02-19 12:02:00,
2013-02-19 07:12:00,46.0,37.0,-100.00,East,83,2.0,6.0,71,0.00,,,0.00,0.000000,,2013-02-19 12:12:00,
2013-02-19 07:22:00,46.0,37.0,-100.00,East,83,2.0,6.0,71,0.00,,,0.00,0.000000,,2013-02-19 12:22:00,
2013-02-19 07:53:00,49.0,39.0,-100.00,East,84,2.0,6.0,69,0.00,,,0.00,24.000000,,2013-02-19 12:53:00,
2013-02-19 08:02:00,49.0,39.0,-100.00,East,84,2.0,6.0,69,0.00,,,0.00,24.000000,,2013-02-19 13:02:00,
2013-02-19 08:11:00,49.0,39.0,-100.00,East,84,2.0,6.0,69,0.00,,,0.00,24.000000,,2013-02-19 13:11:00,
2013-02-19 08:22:00,49.0,39.0,-100.00,East,84,2.0,6.0,69,0.00,,,0.00,24.000000,,2013-02-19 13:22:00,
2013-02-19 08:52:00,53.0,42.0,-100.00,SE,128,4.0,6.0,66,0.00,,,0.00,141.000000,,2013-02-19 13:52:00,
2013-02-19 09:02:00,53.0,42.0,-100.00,SE,128,4.0,6.0,66,0.00,,,0.00,141.000000,,2013-02-19 14:02:00,
2013-02-19 09:12:00,53.0,42.0,-100.00,SE,128,4.0,6.0,66,0.00,,,0.00,141.000000,,2013-02-19 14:12:00,
2013-02-19 09:22:00,53.0,42.0,-100.00,SE,128,4.0,6.0,66,0.00,,,0.00,141.000000,,2013-02-19 14:22:00,
2013-02-19 09:52:00,58.0,45.0,-100.00,SE,140,3.0,7.0,62,0.00,,,0.00,98.000000,,2013-02-19 14:52:00,
2013-02-19 10:02:00,58.0,45.0,-100.00,SE,140,3.0,7.0,62,0.00,,,0.00,98.000000,,2013-02-19 15:02:00,
2013-02-19 10:11:00,58.0,45.0,-100.00,SE,140,3.0,7.0,62,0.00,,,0.00,98.000000,,2013-02-19 15:11:00,
2013-02-19 10:22:00,58.0,45.0,-100.00,SE,140,3.0,7.0,62,0.00,,,0.00,98.000000,,2013-02-19 15:22:00,
2013-02-19 10:52:00,60.0,46.0,-100.00,SSW,200,5.0,11.0,59,0.00,,,0.00,352.000000,,2013-02-19 15:52:00,
2013-02-19 11:02:00,60.0,46.0,-100.00,SSW,200,5.0,11.0,59,0.00,,,0.00,352.000000,,2013-02-19 16:02:00,
2013-02-19 11:11:00,60.0,46.0,-100.00,SSW,200,5.0,11.0,59,0.00,,,0.00,352.000000,,2013-02-19 16:11:00,
2013-02-19 11:22:00,60.0,46.0,-100.00,SSW,200,5.0,11.0,59,0.00,,,0.00,352.000000,,2013-02-19 16:22:00,
2013-02-19 11:52:00,61.0,47.0,-100.00,SSW,210,5.0,13.0,59,0.00,,,0.00,179.000000,,2013-02-19 16:52:00,
2013-02-19 12:01:00,61.0,47.0,-100.00,SSW,210,5.0,13.0,59,0.00,,,0.00,179.000000,,2013-02-19 17:01:00,
2013-02-19 12:11:00,61.0,47.0,-100.00,SSW,210,5.0,13.0,59,0.00,,,0.00,179.000000,,2013-02-19 17:11:00,
2013-02-19 12:21:00,61.0,47.0,-100.00,SSW,210,5.0,13.0,59,0.00,,,0.00,179.000000,,2013-02-19 17:21:00,
2013-02-19 12:52:00,59.0,46.0,-100.00,South,185,5.0,15.0,63,0.00,,,0.00,298.000000,,2013-02-19 17:52:00,
2013-02-19 13:02:00,59.0,46.0,-100.00,South,185,5.0,15.0,63,0.00,,,0.00,298.000000,,2013-02-19 18:02:00,
2013-02-19 13:11:00,59.0,46.0,-100.00,South,185,5.0,15.0,63,0.00,,,0.00,298.000000,,2013-02-19 18:11:00,
2013-02-19 13:21:00,59.0,46.0,-100.00,South,185,5.0,15.0,63,0.00,,,0.00,298.000000,,2013-02-19 18:21:00,
2013-02-19 13:52:00,59.0,47.0,-100.00,SSE,162,5.0,15.0,65,0.00,,,0.00,197.000000,,2013-02-19 18:52:00,
2013-02-19 14:01:00,59.0,47.0,-100.00,SSE,162,5.0,15.0,65,0.00,,,0.00,197.000000,,2013-02-19 19:01:00,
2013-02-19 14:11:00,59.0,47.0,-100.00,SSE,162,5.0,15.0,65,0.00,,,0.00,197.000000,,2013-02-19 19:11:00,
2013-02-19 14:21:00,59.0,47.0,-100.00,SSE,162,5.0,15.0,65,0.00,,,0.00,197.000000,,2013-02-19 19:21:00,
2013-02-19 14:52:00,58.0,48.0,-100.00,SSW,213,5.0,13.0,69,0.07,,,0.07,97.000000,,2013-02-19 19:52:00,
2013-02-19 15:02:00,58.0,48.0,-100.00,SSW,213,5.0,13.0,69,0.07,,,0.07,97.000000,,2013-02-19 20:02:00,
2013-02-19 15:12:00,58.0,48.0,-100.00,SSW,213,5.0,13.0,69,0.07,,,0.07,97.000000,,2013-02-19 20:12:00,
2013-02-19 15:22:00,58.0,48.0,-100.00,SSW,213,5.0,13.0,69,0.07,,,0.07,97.000000,,2013-02-19 20:22:00,
2013-02-19 15:52:00,54.0,44.0,-100.00,South,183,6.0,17.0,70,0.11,,,0.18,60.000000,,2013-02-19 20:52:00,
2013-02-19 16:52:00,54.0,44.0,-100.00,South,186,6.0,15.0,69,0.00,,,0.18,52.000000,,2013-02-19 21:52:00,
2013-02-19 17:52:00,56.0,46.0,-100.00,SSW,207,5.0,17.0,68,0.00,,,0.18,51.000000,,2013-02-19 22:52:00,
2013-02-19 18:01:00,56.0,46.0,-100.00,SSW,207,5.0,17.0,68,0.00,,,0.18,51.000000,,2013-02-19 23:01:00,
2013-02-19 18:11:00,56.0,46.0,-100.00,SSW,207,5.0,17.0,68,0.00,,,0.18,51.000000,,2013-02-19 23:11:00,
2013-02-19 18:21:00,56.0,46.0,-100.00,SSW,207,5.0,17.0,68,0.00,,,0.18,51.000000,,2013-02-19 23:21:00,
2013-02-19 18:52:00,56.0,44.0,-100.00,SW,223,5.0,14.0,65,0.00,,,-99.99,10.000000,,2013-02-19 23:52:00,
2013-02-19 19:02:00,56.0,44.0,-100.00,SW,223,5.0,14.0,65,0.00,,,-99.99,10.000000,,2013-02-20 00:02:00,
2013-02-19 19:11:00,56.0,44.0,-100.00,SW,223,5.0,14.0,65,0.00,,,-99.99,10.000000,,2013-02-20 00:11:00,
2013-02-19 19:22:00,56.0,44.0,-100.00,SW,223,5.0,14.0,65,0.00,,,-99.99,10.000000,,2013-02-20 00:22:00,
2013-02-19 19:52:00,57.0,45.0,-100.00,WSW,242,10.0,27.0,63,0.00,,,0.18,0.000000,,2013-02-20 00:52:00,
2013-02-19 20:02:00,57.0,45.0,-100.00,WSW,242,10.0,27.0,63,0.00,,,0.18,0.000000,,2013-02-20 01:02:00,
2013-02-19 20:11:00,57.0,45.0,-100.00,WSW,242,10.0,27.0,63,0.00,,,0.18,0.000000,,2013-02-20 01:11:00,
2013-02-19 20:22:00,57.0,45.0,-100.00,WSW,242,10.0,27.0,63,0.00,,,0.18,0.000000,,2013-02-20 01:22:00,
2013-02-19 20:52:00,57.0,46.0,-100.00,WSW,243,8.0,26.0,67,0.00,,,0.18,0.000000,,2013-02-20 01:52:00,
2013-02-19 21:02:00,57.0,46.0,-100.00,WSW,243,8.0,26.0,67,0.00,,,0.18,0.000000,,2013-02-20 02:02:00,
2013-02-19 21:11:00,57.0,46.0,-100.00,WSW,243,8.0,26.0,67,0.00,,,0.18,0.000000,,2013-02-20 02:11:00,
2013-02-19 21:22:00,57.0,46.0,-100.00,WSW,243,8.0,26.0,67,0.00,,,0.18,0.000000,,2013-02-20 02:22:00,
2013-02-19 21:52:00,56.0,46.0,-100.00,WSW,249,6.0,18.0,69,0.00,,,0.18,0.000000,,2013-02-20 02:52:00,
2013-02-19 22:02:00,56.0,46.0,-100.00,WSW,249,6.0,18.0,69,0.00,,,0.18,0.000000,,2013-02-20 03:02:00,
2013-02-19 22:12:00,56.0,46.0,-100.00,WSW,249,6.0,18.0,69,0.00,,,0.18,0.000000,,2013-02-20 03:12:00,
2013-02-19 22:22:00,56.0,46.0,-100.00,WSW,249,6.0,18.0,69,0.00,,,0.18,0.000000,,2013-02-20 03:22:00,
2013-02-19 22:52:00,54.0,44.0,-100.00,West,261,6.0,14.0,70,0.00,,,0.18,0.000000,,2013-02-20 03:52:00,
2013-02-19 23:52:00,51.0,39.0,-100.00,West,278,5.0,17.0,64,0.00,,,0.18,0.000000,,2013-02-20 04:52:00,